首页
METAR-TAF:

METAR-TAF

机场 :

費耶特維爾, 北卡罗来纳州, 美国

纬度: 34-59-22N, 经度: 078-52-48W, 海拔: 57米

当前天气观测

该预报发布于46分钟前的15:53 UTC
风速8节,风向
温度 14°C
湿度 51%
气压 1020 hPa
能見度: 16.1公里
天空无云

METAR: KFAY 201553Z 35008KT 10SM CLR 14/04 A3011 RMK AO2 SLP191 T01440039

时间: 11:39 (16:39 UTC)

预报

该预报发布于2小时和33分钟前的14:06 UTC
预报有效从20日的 14点(UTC)到 21日的 12点(UTC)
风速6节,风向北转西北
能見度: 10公里
天空无云
从 20日的 1600点(UTC)
风速10节,风向北转西北,有时为16节阵风
能見度: 10公里
天空无云
从 20日的 2300点(UTC)
风速3节,风向
能見度: 10公里
天空无云

TAF: KFAY 201406Z 2014/2112 33006KT P6SM SKC FM201600 33010G16KT P6SM SKC FM202300 35003KT P6SM SKC

超过4000个机场的气象观测和天气预报(METAR&TAF报告)。

可查询的气象台以黄色和红色小点在地图上表示。

将鼠标移到小点上方,可查看气象台名称。

然后点击查看天气观测和预报。

如需切换地图:点击带黑十字的绿色按钮放大地图;点击带横线的绿色按钮缩小地图;或者点击绿色箭头查看邻近地区的地图。


METAR-TAF: